Airfield :
LOGIN :

Register | Disclaimer

   EN    FR    IT 

 










Legend :    VFR   Marginal VFR   IFR   Intensive IFR   Very Intensive IFR
Visi :
Ceiling :
>= 8 km
>= 3000ft
5 to 8 km
1000 to 3000 ft
1500m to 5 km
500 to 1000 ft
800 to 1500m
200 to 500 ft
< 800m
< 200 ft
Symbols :   Thunderstorms  Fog  Heavy snow  Heavy precipitations  Wind > 20 kt
SIGMETs :     Misc.  Thunderstorms  Icing  Turbulence  Mountain Waves  Volcanic Ashes






- Airport Elevation : 203 ft
- IATA code : XMJ


LFBM - Mont-De-Marsan

CURRENT METAR :
  • 221300Z AUTO 30008KT 270V340 9999 FEW026 BKN045 17/10 Q1023 NOSIG

EXPIRED METARs :
  • 221230Z AUTO 32008KT 280V350 9999 FEW026 OVC046 17/10 Q1023 NOSIG
  • 221200Z AUTO VRB06KT 9999 BKN025 BKN033 OVC042 18/11 Q1023 NOSIG
  • 221130Z AUTO 30003KT 260V340 9999 FEW026 SCT031 OVC040 16/11 Q1023 NOSIG
  • 221100Z AUTO VRB02KT 9999 FEW019 OVC032 16/10 Q1023 NOSIG
  • 221030Z AUTO VRB02KT 9999 BKN021 OVC029 16/11 Q1023 NOSIG

TAF TAF LFBM
Valid from the 22 at 09:00 until the 23 at 09:00 UTC


220800Z 2209/2309 29005KT 2500 -RADZ BR OVC003
BECMG 2209/2211 9999 NSW BKN030



MET'MAP, your aeronautical weather chart ! - Copyright ORBIFLY December 2007 - Disclaimer

ORBIFLY MET'MAP TEAM :

Programming & Development : Alexandra Zaïnal
Concept & original design : Baudouin d'Aumeries
Assistance for programming : Marc-Olivier Méhu
Technical & hardware support : Manuel Goepfert

Contact : metmap@orbifly.com




SOURCES & CREDITS :

   NOAA